sensor_id;sensor_type;location;lat;lon;timestamp;P1;durP1;ratioP1;P2;durP2;ratioP2
67585;SDS011;55785;47.946;20.540;2023-09-19T00:01:07;4.45;;;2.60;;
67585;SDS011;55785;47.946;20.540;2023-09-19T00:03:32;7.03;;;2.72;;
67585;SDS011;55785;47.946;20.540;2023-09-19T00:05:58;6.72;;;2.47;;
67585;SDS011;55785;47.946;20.540;2023-09-19T00:08:23;6.68;;;2.78;;
67585;SDS011;55785;47.946;20.540;2023-09-19T00:10:48;6.70;;;2.67;;
67585;SDS011;55785;47.946;20.540;2023-09-19T00:13:13;6.18;;;2.45;;
67585;SDS011;55785;47.946;20.540;2023-09-19T00:15:39;5.20;;;2.50;;
67585;SDS011;55785;47.946;20.540;2023-09-19T00:18:05;3.35;;;2.33;;
67585;SDS011;55785;47.946;20.540;2023-09-19T00:20:31;6.90;;;2.60;;
67585;SDS011;55785;47.946;20.540;2023-09-19T00:22:56;4.07;;;2.88;;
67585;SDS011;55785;47.946;20.540;2023-09-19T00:25:21;4.35;;;2.45;;
67585;SDS011;55785;47.946;20.540;2023-09-19T00:27:46;5.00;;;2.55;;
67585;SDS011;55785;47.946;20.540;2023-09-19T00:30:12;8.50;;;2.70;;
67585;SDS011;55785;47.946;20.540;2023-09-19T00:32:37;3.65;;;2.42;;
67585;SDS011;55785;47.946;20.540;2023-09-19T00:35:02;4.28;;;2.63;;
67585;SDS011;55785;47.946;20.540;2023-09-19T00:37:27;7.63;;;2.50;;
67585;SDS011;55785;47.946;20.540;2023-09-19T00:39:53;5.70;;;2.90;;
67585;SDS011;55785;47.946;20.540;2023-09-19T00:42:22;3.53;;;2.58;;
67585;SDS011;55785;47.946;20.540;2023-09-19T00:44:47;4.97;;;2.80;;
67585;SDS011;55785;47.946;20.540;2023-09-19T00:47:12;4.65;;;2.83;;
67585;SDS011;55785;47.946;20.540;2023-09-19T00:49:37;4.47;;;2.75;;
67585;SDS011;55785;47.946;20.540;2023-09-19T00:52:03;4.10;;;2.60;;
67585;SDS011;55785;47.946;20.540;2023-09-19T00:54:28;3.92;;;2.58;;
67585;SDS011;55785;47.946;20.540;2023-09-19T00:56:53;3.92;;;2.70;;
67585;SDS011;55785;47.946;20.540;2023-09-19T00:59:19;6.13;;;2.90;;
67585;SDS011;55785;47.946;20.540;2023-09-19T01:01:44;4.03;;;2.85;;
67585;SDS011;55785;47.946;20.540;2023-09-19T01:04:09;4.45;;;2.60;;
67585;SDS011;55785;47.946;20.540;2023-09-19T01:06:34;3.28;;;2.63;;
67585;SDS011;55785;47.946;20.540;2023-09-19T01:08:59;6.35;;;2.80;;
67585;SDS011;55785;47.946;20.540;2023-09-19T01:11:28;4.18;;;2.83;;
67585;SDS011;55785;47.946;20.540;2023-09-19T01:21:27;5.40;;;2.58;;
67585;SDS011;55785;47.946;20.540;2023-09-19T01:29:51;4.50;;;2.65;;
67585;SDS011;55785;47.946;20.540;2023-09-19T01:32:03;3.63;;;2.55;;
67585;SDS011;55785;47.946;20.540;2023-09-19T01:37:12;6.15;;;2.60;;
67585;SDS011;55785;47.946;20.540;2023-09-19T01:39:37;4.40;;;2.78;;
67585;SDS011;55785;47.946;20.540;2023-09-19T01:44:40;6.75;;;3.00;;
67585;SDS011;55785;47.946;20.540;2023-09-19T01:47:13;3.80;;;2.55;;
67585;SDS011;55785;47.946;20.540;2023-09-19T01:49:50;3.60;;;2.55;;
67585;SDS011;55785;47.946;20.540;2023-09-19T01:52:19;4.65;;;2.47;;
67585;SDS011;55785;47.946;20.540;2023-09-19T01:54:56;3.47;;;2.70;;
67585;SDS011;55785;47.946;20.540;2023-09-19T01:57:28;5.80;;;2.92;;
67585;SDS011;55785;47.946;20.540;2023-09-19T01:59:56;5.80;;;2.78;;
67585;SDS011;55785;47.946;20.540;2023-09-19T02:02:24;4.38;;;2.90;;
67585;SDS011;55785;47.946;20.540;2023-09-19T02:04:50;4.75;;;2.65;;
67585;SDS011;55785;47.946;20.540;2023-09-19T02:07:15;4.35;;;2.78;;
67585;SDS011;55785;47.946;20.540;2023-09-19T02:09:40;3.20;;;2.35;;
67585;SDS011;55785;47.946;20.540;2023-09-19T02:12:06;3.55;;;2.40;;
67585;SDS011;55785;47.946;20.540;2023-09-19T02:14:31;3.95;;;2.65;;
67585;SDS011;55785;47.946;20.540;2023-09-19T02:16:56;4.10;;;3.00;;
67585;SDS011;55785;47.946;20.540;2023-09-19T02:19:21;4.00;;;2.78;;
67585;SDS011;55785;47.946;20.540;2023-09-19T02:21:46;5.25;;;2.97;;
67585;SDS011;55785;47.946;20.540;2023-09-19T02:24:11;4.68;;;2.92;;
67585;SDS011;55785;47.946;20.540;2023-09-19T02:26:37;3.85;;;2.90;;
67585;SDS011;55785;47.946;20.540;2023-09-19T02:29:02;3.00;;;2.50;;
67585;SDS011;55785;47.946;20.540;2023-09-19T02:31:27;5.25;;;2.88;;
67585;SDS011;55785;47.946;20.540;2023-09-19T02:33:52;4.82;;;2.63;;
67585;SDS011;55785;47.946;20.540;2023-09-19T02:36:18;5.15;;;2.85;;
67585;SDS011;55785;47.946;20.540;2023-09-19T02:38:43;6.28;;;3.17;;
67585;SDS011;55785;47.946;20.540;2023-09-19T02:41:08;4.20;;;2.80;;
67585;SDS011;55785;47.946;20.540;2023-09-19T02:43:33;3.95;;;2.90;;
67585;SDS011;55785;47.946;20.540;2023-09-19T02:45:58;3.97;;;2.75;;
67585;SDS011;55785;47.946;20.540;2023-09-19T02:48:23;3.60;;;2.65;;
67585;SDS011;55785;47.946;20.540;2023-09-19T02:50:49;5.75;;;3.17;;
67585;SDS011;55785;47.946;20.540;2023-09-19T02:53:14;5.10;;;2.80;;
67585;SDS011;55785;47.946;20.540;2023-09-19T02:55:39;4.88;;;2.83;;
67585;SDS011;55785;47.946;20.540;2023-09-19T02:58:05;4.72;;;2.92;;
67585;SDS011;55785;47.946;20.540;2023-09-19T03:00:30;3.35;;;2.65;;
67585;SDS011;55785;47.946;20.540;2023-09-19T03:02:56;4.18;;;2.85;;
67585;SDS011;55785;47.946;20.540;2023-09-19T03:05:22;4.18;;;2.63;;
67585;SDS011;55785;47.946;20.540;2023-09-19T03:07:47;3.63;;;2.70;;
67585;SDS011;55785;47.946;20.540;2023-09-19T03:10:12;4.82;;;2.72;;
67585;SDS011;55785;47.946;20.540;2023-09-19T03:12:38;4.70;;;3.00;;
67585;SDS011;55785;47.946;20.540;2023-09-19T03:15:03;4.63;;;3.05;;
67585;SDS011;55785;47.946;20.540;2023-09-19T03:17:28;4.10;;;2.80;;
67585;SDS011;55785;47.946;20.540;2023-09-19T03:19:53;3.88;;;2.85;;
67585;SDS011;55785;47.946;20.540;2023-09-19T03:22:19;3.20;;;2.40;;
67585;SDS011;55785;47.946;20.540;2023-09-19T03:24:44;3.97;;;2.90;;
67585;SDS011;55785;47.946;20.540;2023-09-19T03:27:09;3.75;;;2.80;;
67585;SDS011;55785;47.946;20.540;2023-09-19T03:29:35;4.50;;;2.75;;
67585;SDS011;55785;47.946;20.540;2023-09-19T03:32:00;4.63;;;2.80;;
67585;SDS011;55785;47.946;20.540;2023-09-19T03:34:25;6.00;;;3.00;;
67585;SDS011;55785;47.946;20.540;2023-09-19T03:36:50;3.85;;;2.67;;
67585;SDS011;55785;47.946;20.540;2023-09-19T03:39:15;5.55;;;2.65;;
67585;SDS011;55785;47.946;20.540;2023-09-19T03:41:40;5.55;;;2.83;;
67585;SDS011;55785;47.946;20.540;2023-09-19T03:44:06;4.50;;;2.85;;
67585;SDS011;55785;47.946;20.540;2023-09-19T03:46:31;3.75;;;2.78;;
67585;SDS011;55785;47.946;20.540;2023-09-19T03:48:56;6.07;;;2.75;;
67585;SDS011;55785;47.946;20.540;2023-09-19T03:51:21;4.32;;;2.80;;
67585;SDS011;55785;47.946;20.540;2023-09-19T03:53:46;4.00;;;2.78;;
67585;SDS011;55785;47.946;20.540;2023-09-19T03:56:11;6.72;;;2.83;;
67585;SDS011;55785;47.946;20.540;2023-09-19T03:58:37;4.57;;;2.70;;
67585;SDS011;55785;47.946;20.540;2023-09-19T04:01:02;3.95;;;2.80;;
67585;SDS011;55785;47.946;20.540;2023-09-19T04:03:27;4.35;;;2.70;;
67585;SDS011;55785;47.946;20.540;2023-09-19T04:05:52;3.30;;;2.50;;
67585;SDS011;55785;47.946;20.540;2023-09-19T04:08:17;4.18;;;2.90;;
67585;SDS011;55785;47.946;20.540;2023-09-19T04:10:43;3.47;;;2.33;;
67585;SDS011;55785;47.946;20.540;2023-09-19T04:13:08;4.03;;;2.72;;
67585;SDS011;55785;47.946;20.540;2023-09-19T04:15:33;6.13;;;2.88;;
67585;SDS011;55785;47.946;20.540;2023-09-19T04:17:58;4.50;;;2.88;;
67585;SDS011;55785;47.946;20.540;2023-09-19T04:20:24;3.67;;;2.80;;
67585;SDS011;55785;47.946;20.540;2023-09-19T04:22:49;4.40;;;2.92;;
67585;SDS011;55785;47.946;20.540;2023-09-19T04:25:14;3.88;;;2.75;;
67585;SDS011;55785;47.946;20.540;2023-09-19T04:27:39;4.75;;;2.90;;
67585;SDS011;55785;47.946;20.540;2023-09-19T04:30:05;4.10;;;2.78;;
67585;SDS011;55785;47.946;20.540;2023-09-19T04:32:30;3.35;;;2.35;;
67585;SDS011;55785;47.946;20.540;2023-09-19T04:34:55;4.72;;;2.65;;
67585;SDS011;55785;47.946;20.540;2023-09-19T04:37:21;4.05;;;2.30;;
67585;SDS011;55785;47.946;20.540;2023-09-19T04:39:46;4.30;;;2.80;;
67585;SDS011;55785;47.946;20.540;2023-09-19T04:42:12;5.07;;;2.60;;
67585;SDS011;55785;47.946;20.540;2023-09-19T04:44:37;4.00;;;2.78;;
67585;SDS011;55785;47.946;20.540;2023-09-19T04:47:03;3.75;;;2.70;;
67585;SDS011;55785;47.946;20.540;2023-09-19T04:49:28;4.88;;;2.97;;
67585;SDS011;55785;47.946;20.540;2023-09-19T04:51:53;4.88;;;2.80;;
67585;SDS011;55785;47.946;20.540;2023-09-19T04:54:18;4.05;;;2.92;;
67585;SDS011;55785;47.946;20.540;2023-09-19T04:56:43;5.00;;;3.10;;
67585;SDS011;55785;47.946;20.540;2023-09-19T04:59:08;5.22;;;2.78;;
67585;SDS011;55785;47.946;20.540;2023-09-19T05:01:34;5.35;;;2.63;;
67585;SDS011;55785;47.946;20.540;2023-09-19T05:03:59;4.18;;;2.90;;
67585;SDS011;55785;47.946;20.540;2023-09-19T05:06:24;3.90;;;2.55;;
67585;SDS011;55785;47.946;20.540;2023-09-19T05:08:50;6.47;;;2.58;;
67585;SDS011;55785;47.946;20.540;2023-09-19T05:11:15;4.43;;;2.67;;
67585;SDS011;55785;47.946;20.540;2023-09-19T05:13:40;5.05;;;2.60;;
67585;SDS011;55785;47.946;20.540;2023-09-19T05:16:05;3.60;;;2.50;;
67585;SDS011;55785;47.946;20.540;2023-09-19T05:18:30;3.33;;;2.33;;
67585;SDS011;55785;47.946;20.540;2023-09-19T05:20:55;4.93;;;3.05;;
67585;SDS011;55785;47.946;20.540;2023-09-19T05:23:21;4.38;;;2.72;;
67585;SDS011;55785;47.946;20.540;2023-09-19T05:25:46;4.05;;;2.63;;
67585;SDS011;55785;47.946;20.540;2023-09-19T05:28:11;4.28;;;2.47;;
67585;SDS011;55785;47.946;20.540;2023-09-19T05:30:36;4.97;;;2.83;;
67585;SDS011;55785;47.946;20.540;2023-09-19T05:33:02;3.97;;;2.75;;
67585;SDS011;55785;47.946;20.540;2023-09-19T05:35:27;4.10;;;2.60;;
67585;SDS011;55785;47.946;20.540;2023-09-19T05:37:53;3.95;;;2.72;;
67585;SDS011;55785;47.946;20.540;2023-09-19T05:40:18;5.00;;;2.80;;
67585;SDS011;55785;47.946;20.540;2023-09-19T05:42:44;4.70;;;2.78;;
67585;SDS011;55785;47.946;20.540;2023-09-19T05:45:09;3.55;;;2.78;;
67585;SDS011;55785;47.946;20.540;2023-09-19T05:47:35;3.65;;;2.55;;
67585;SDS011;55785;47.946;20.540;2023-09-19T05:50:00;6.63;;;2.65;;
67585;SDS011;55785;47.946;20.540;2023-09-19T05:52:25;7.30;;;2.60;;
67585;SDS011;55785;47.946;20.540;2023-09-19T05:54:50;3.92;;;2.90;;
67585;SDS011;55785;47.946;20.540;2023-09-19T05:57:15;4.10;;;2.95;;
67585;SDS011;55785;47.946;20.540;2023-09-19T05:59:40;5.63;;;4.00;;
67585;SDS011;55785;47.946;20.540;2023-09-19T06:02:05;4.22;;;2.72;;
67585;SDS011;55785;47.946;20.540;2023-09-19T06:04:31;7.03;;;2.80;;
67585;SDS011;55785;47.946;20.540;2023-09-19T06:06:56;4.57;;;2.80;;
67585;SDS011;55785;47.946;20.540;2023-09-19T06:09:21;5.13;;;2.85;;
67585;SDS011;55785;47.946;20.540;2023-09-19T06:11:46;4.95;;;2.60;;
67585;SDS011;55785;47.946;20.540;2023-09-19T06:14:11;4.50;;;2.53;;
67585;SDS011;55785;47.946;20.540;2023-09-19T06:16:36;4.85;;;2.78;;
67585;SDS011;55785;47.946;20.540;2023-09-19T06:19:02;3.58;;;2.13;;
67585;SDS011;55785;47.946;20.540;2023-09-19T06:21:27;3.08;;;2.22;;
67585;SDS011;55785;47.946;20.540;2023-09-19T06:23:52;3.65;;;2.85;;
67585;SDS011;55785;47.946;20.540;2023-09-19T06:26:18;4.03;;;2.60;;
67585;SDS011;55785;47.946;20.540;2023-09-19T06:28:43;4.75;;;2.60;;
67585;SDS011;55785;47.946;20.540;2023-09-19T06:31:08;4.05;;;2.53;;
67585;SDS011;55785;47.946;20.540;2023-09-19T06:33:33;3.97;;;2.55;;
67585;SDS011;55785;47.946;20.540;2023-09-19T06:35:58;5.70;;;2.60;;
67585;SDS011;55785;47.946;20.540;2023-09-19T06:38:23;4.35;;;2.60;;
67585;SDS011;55785;47.946;20.540;2023-09-19T06:40:49;4.15;;;2.55;;
67585;SDS011;55785;47.946;20.540;2023-09-19T06:43:14;2.95;;;2.25;;
67585;SDS011;55785;47.946;20.540;2023-09-19T06:45:39;3.63;;;2.78;;
67585;SDS011;55785;47.946;20.540;2023-09-19T06:48:04;3.45;;;2.65;;
67585;SDS011;55785;47.946;20.540;2023-09-19T06:50:30;5.05;;;2.30;;
67585;SDS011;55785;47.946;20.540;2023-09-19T06:52:55;3.83;;;2.40;;
67585;SDS011;55785;47.946;20.540;2023-09-19T06:55:21;3.50;;;2.50;;
67585;SDS011;55785;47.946;20.540;2023-09-19T06:57:47;7.55;;;2.80;;
67585;SDS011;55785;47.946;20.540;2023-09-19T07:00:12;3.33;;;2.33;;
67585;SDS011;55785;47.946;20.540;2023-09-19T07:02:38;2.63;;;2.25;;
67585;SDS011;55785;47.946;20.540;2023-09-19T07:05:03;3.67;;;2.17;;
67585;SDS011;55785;47.946;20.540;2023-09-19T07:07:28;4.40;;;2.22;;
67585;SDS011;55785;47.946;20.540;2023-09-19T07:09:53;4.70;;;2.57;;
67585;SDS011;55785;47.946;20.540;2023-09-19T07:12:18;4.10;;;2.33;;
67585;SDS011;55785;47.946;20.540;2023-09-19T07:14:43;3.42;;;2.35;;
67585;SDS011;55785;47.946;20.540;2023-09-19T07:17:09;3.50;;;2.30;;
67585;SDS011;55785;47.946;20.540;2023-09-19T07:19:34;3.90;;;2.30;;
67585;SDS011;55785;47.946;20.540;2023-09-19T07:21:59;5.53;;;2.47;;
67585;SDS011;55785;47.946;20.540;2023-09-19T07:24:24;3.80;;;2.10;;
67585;SDS011;55785;47.946;20.540;2023-09-19T07:26:49;6.40;;;2.47;;
67585;SDS011;55785;47.946;20.540;2023-09-19T07:29:15;4.47;;;2.28;;
67585;SDS011;55785;47.946;20.540;2023-09-19T07:31:40;3.10;;;2.03;;
67585;SDS011;55785;47.946;20.540;2023-09-19T07:34:05;4.20;;;2.27;;
67585;SDS011;55785;47.946;20.540;2023-09-19T07:36:30;4.53;;;2.50;;
67585;SDS011;55785;47.946;20.540;2023-09-19T07:38:55;3.70;;;2.30;;
67585;SDS011;55785;47.946;20.540;2023-09-19T07:41:20;4.60;;;2.70;;
67585;SDS011;55785;47.946;20.540;2023-09-19T07:43:46;3.77;;;2.50;;
67585;SDS011;55785;47.946;20.540;2023-09-19T07:46:11;5.07;;;2.63;;
67585;SDS011;55785;47.946;20.540;2023-09-19T07:48:36;4.60;;;2.43;;
67585;SDS011;55785;47.946;20.540;2023-09-19T07:51:04;4.20;;;2.80;;
67585;SDS011;55785;47.946;20.540;2023-09-19T07:53:30;3.53;;;2.67;;
67585;SDS011;55785;47.946;20.540;2023-09-19T07:56:05;4.55;;;2.45;;
67585;SDS011;55785;47.946;20.540;2023-09-19T07:58:30;7.05;;;2.40;;
67585;SDS011;55785;47.946;20.540;2023-09-19T08:00:55;3.65;;;2.53;;
67585;SDS011;55785;47.946;20.540;2023-09-19T08:03:20;5.00;;;2.50;;
67585;SDS011;55785;47.946;20.540;2023-09-19T08:05:46;3.00;;;2.38;;
67585;SDS011;55785;47.946;20.540;2023-09-19T08:08:11;3.83;;;2.65;;
67585;SDS011;55785;47.946;20.540;2023-09-19T08:10:36;7.57;;;2.80;;
67585;SDS011;55785;47.946;20.540;2023-09-19T08:13:01;4.43;;;2.60;;
67585;SDS011;55785;47.946;20.540;2023-09-19T08:15:26;4.03;;;2.70;;
67585;SDS011;55785;47.946;20.540;2023-09-19T08:17:51;4.40;;;2.47;;
67585;SDS011;55785;47.946;20.540;2023-09-19T08:20:16;3.40;;;2.27;;
67585;SDS011;55785;47.946;20.540;2023-09-19T08:22:48;3.83;;;2.78;;
67585;SDS011;55785;47.946;20.540;2023-09-19T08:25:14;3.92;;;2.47;;
67585;SDS011;55785;47.946;20.540;2023-09-19T08:27:39;5.40;;;2.75;;
67585;SDS011;55785;47.946;20.540;2023-09-19T08:30:05;4.40;;;2.77;;
67585;SDS011;55785;47.946;20.540;2023-09-19T08:32:30;4.40;;;2.88;;
67585;SDS011;55785;47.946;20.540;2023-09-19T08:34:55;7.80;;;3.27;;
67585;SDS011;55785;47.946;20.540;2023-09-19T08:37:20;5.40;;;2.73;;
67585;SDS011;55785;47.946;20.540;2023-09-19T08:39:45;6.10;;;2.60;;
67585;SDS011;55785;47.946;20.540;2023-09-19T08:42:11;6.00;;;2.70;;
67585;SDS011;55785;47.946;20.540;2023-09-19T08:44:36;4.53;;;2.50;;
67585;SDS011;55785;47.946;20.540;2023-09-19T08:47:06;4.35;;;2.45;;
67585;SDS011;55785;47.946;20.540;2023-09-19T08:49:36;4.38;;;2.75;;
67585;SDS011;55785;47.946;20.540;2023-09-19T08:54:46;6.25;;;2.70;;
67585;SDS011;55785;47.946;20.540;2023-09-19T08:57:12;5.50;;;2.80;;
67585;SDS011;55785;47.946;20.540;2023-09-19T08:59:38;6.57;;;3.38;;
67585;SDS011;55785;47.946;20.540;2023-09-19T09:02:03;3.90;;;2.85;;
67585;SDS011;55785;47.946;20.540;2023-09-19T09:04:28;4.47;;;2.85;;
67585;SDS011;55785;47.946;20.540;2023-09-19T09:06:53;5.43;;;3.20;;
67585;SDS011;55785;47.946;20.540;2023-09-19T09:09:20;4.40;;;3.08;;
67585;SDS011;55785;47.946;20.540;2023-09-19T09:11:45;7.18;;;3.55;;
67585;SDS011;55785;47.946;20.540;2023-09-19T09:14:10;8.93;;;3.77;;
67585;SDS011;55785;47.946;20.540;2023-09-19T09:16:36;7.70;;;4.10;;
67585;SDS011;55785;47.946;20.540;2023-09-19T09:19:01;5.68;;;3.53;;
67585;SDS011;55785;47.946;20.540;2023-09-19T09:21:27;4.65;;;3.20;;
67585;SDS011;55785;47.946;20.540;2023-09-19T09:23:52;5.55;;;3.30;;
67585;SDS011;55785;47.946;20.540;2023-09-19T09:26:20;5.45;;;3.45;;
67585;SDS011;55785;47.946;20.540;2023-09-19T09:29:02;5.97;;;3.63;;
67585;SDS011;55785;47.946;20.540;2023-09-19T09:31:28;7.15;;;3.20;;
67585;SDS011;55785;47.946;20.540;2023-09-19T09:33:53;5.50;;;3.05;;
67585;SDS011;55785;47.946;20.540;2023-09-19T09:36:19;8.38;;;3.50;;
67585;SDS011;55785;47.946;20.540;2023-09-19T09:38:58;5.10;;;3.13;;
67585;SDS011;55785;47.946;20.540;2023-09-19T09:41:27;5.72;;;3.20;;
67585;SDS011;55785;47.946;20.540;2023-09-19T09:44:04;7.35;;;3.45;;
67585;SDS011;55785;47.946;20.540;2023-09-19T09:46:36;6.13;;;3.42;;
67585;SDS011;55785;47.946;20.540;2023-09-19T09:49:07;7.65;;;3.45;;
67585;SDS011;55785;47.946;20.540;2023-09-19T09:51:34;5.25;;;3.03;;
67585;SDS011;55785;47.946;20.540;2023-09-19T09:54:13;4.45;;;3.30;;
67585;SDS011;55785;47.946;20.540;2023-09-19T09:56:51;5.50;;;3.38;;
67585;SDS011;55785;47.946;20.540;2023-09-19T09:59:16;8.95;;;3.40;;
67585;SDS011;55785;47.946;20.540;2023-09-19T10:01:50;6.28;;;3.25;;
67585;SDS011;55785;47.946;20.540;2023-09-19T10:04:28;5.20;;;3.00;;
67585;SDS011;55785;47.946;20.540;2023-09-19T10:06:53;5.90;;;3.28;;
67585;SDS011;55785;47.946;20.540;2023-09-19T10:09:18;6.77;;;3.03;;
67585;SDS011;55785;47.946;20.540;2023-09-19T10:11:44;6.78;;;3.38;;
67585;SDS011;55785;47.946;20.540;2023-09-19T10:14:13;6.35;;;3.15;;
67585;SDS011;55785;47.946;20.540;2023-09-19T10:16:40;3.03;;;1.35;;
67585;SDS011;55785;47.946;20.540;2023-09-19T10:19:06;1.27;;;1.00;;
67585;SDS011;55785;47.946;20.540;2023-09-19T10:21:32;1.70;;;1.05;;
67585;SDS011;55785;47.946;20.540;2023-09-19T10:23:58;0.80;;;0.70;;
67585;SDS011;55785;47.946;20.540;2023-09-19T10:26:23;1.45;;;0.90;;
67585;SDS011;55785;47.946;20.540;2023-09-19T10:28:49;1.10;;;1.00;;
67585;SDS011;55785;47.946;20.540;2023-09-19T10:31:17;1.48;;;0.90;;
67585;SDS011;55785;47.946;20.540;2023-09-19T10:33:43;3.53;;;0.90;;
67585;SDS011;55785;47.946;20.540;2023-09-19T10:36:09;1.95;;;0.90;;
67585;SDS011;55785;47.946;20.540;2023-09-19T10:38:35;2.85;;;0.82;;
67585;SDS011;55785;47.946;20.540;2023-09-19T10:41:02;1.85;;;1.02;;
67585;SDS011;55785;47.946;20.540;2023-09-19T10:43:31;1.73;;;1.15;;
67585;SDS011;55785;47.946;20.540;2023-09-19T10:45:58;1.27;;;1.17;;
67585;SDS011;55785;47.946;20.540;2023-09-19T10:48:25;1.65;;;1.25;;
67585;SDS011;55785;47.946;20.540;2023-09-19T10:53:28;1.50;;;1.27;;
67585;SDS011;55785;47.946;20.540;2023-09-19T10:55:55;1.17;;;1.08;;
67585;SDS011;55785;47.946;20.540;2023-09-19T10:58:25;1.60;;;0.90;;
67585;SDS011;55785;47.946;20.540;2023-09-19T11:00:53;3.13;;;0.80;;
67585;SDS011;55785;47.946;20.540;2023-09-19T11:03:19;0.50;;;0.50;;
67585;SDS011;55785;47.946;20.540;2023-09-19T11:06:00;0.50;;;0.45;;
67585;SDS011;55785;47.946;20.540;2023-09-19T11:08:25;1.75;;;0.60;;
67585;SDS011;55785;47.946;20.540;2023-09-19T11:10:51;0.60;;;0.50;;
67585;SDS011;55785;47.946;20.540;2023-09-19T11:13:29;0.40;;;0.40;;
67585;SDS011;55785;47.946;20.540;2023-09-19T11:18:50;0.40;;;0.40;;
67585;SDS011;55785;47.946;20.540;2023-09-19T11:26:41;0.40;;;0.40;;
67585;SDS011;55785;47.946;20.540;2023-09-19T11:29:25;0.30;;;0.30;;
67585;SDS011;55785;47.946;20.540;2023-09-19T11:31:51;0.50;;;0.50;;
67585;SDS011;55785;47.946;20.540;2023-09-19T11:37:00;0.65;;;0.40;;
67585;SDS011;55785;47.946;20.540;2023-09-19T11:39:25;0.70;;;0.70;;
67585;SDS011;55785;47.946;20.540;2023-09-19T11:41:51;0.50;;;0.50;;
67585;SDS011;55785;47.946;20.540;2023-09-19T11:49:15;0.90;;;0.60;;
67585;SDS011;55785;47.946;20.540;2023-09-19T11:51:41;1.00;;;0.68;;
67585;SDS011;55785;47.946;20.540;2023-09-19T11:54:10;0.60;;;0.60;;
67585;SDS011;55785;47.946;20.540;2023-09-19T11:56:38;0.95;;;0.80;;
67585;SDS011;55785;47.946;20.540;2023-09-19T11:59:03;1.33;;;0.70;;
67585;SDS011;55785;47.946;20.540;2023-09-19T12:01:30;1.27;;;0.82;;
67585;SDS011;55785;47.946;20.540;2023-09-19T12:03:56;1.10;;;0.70;;
67585;SDS011;55785;47.946;20.540;2023-09-19T12:06:21;1.13;;;0.68;;
67585;SDS011;55785;47.946;20.540;2023-09-19T12:08:47;1.35;;;0.90;;
67585;SDS011;55785;47.946;20.540;2023-09-19T12:11:13;0.77;;;0.70;;
67585;SDS011;55785;47.946;20.540;2023-09-19T12:13:45;1.38;;;0.98;;
67585;SDS011;55785;47.946;20.540;2023-09-19T12:16:14;0.80;;;0.80;;
67585;SDS011;55785;47.946;20.540;2023-09-19T12:18:39;1.65;;;0.93;;
67585;SDS011;55785;47.946;20.540;2023-09-19T12:21:04;1.40;;;0.83;;
67585;SDS011;55785;47.946;20.540;2023-09-19T12:23:29;1.27;;;0.88;;
67585;SDS011;55785;47.946;20.540;2023-09-19T12:25:54;1.10;;;0.80;;
67585;SDS011;55785;47.946;20.540;2023-09-19T12:28:20;1.70;;;0.90;;
67585;SDS011;55785;47.946;20.540;2023-09-19T12:30:45;1.23;;;0.82;;
67585;SDS011;55785;47.946;20.540;2023-09-19T12:33:17;1.30;;;0.90;;
67585;SDS011;55785;47.946;20.540;2023-09-19T12:35:42;2.42;;;1.00;;
67585;SDS011;55785;47.946;20.540;2023-09-19T12:38:07;0.73;;;0.70;;
67585;SDS011;55785;47.946;20.540;2023-09-19T12:40:33;2.20;;;0.80;;
67585;SDS011;55785;47.946;20.540;2023-09-19T12:42:58;0.50;;;0.50;;
67585;SDS011;55785;47.946;20.540;2023-09-19T12:45:23;1.42;;;0.70;;
67585;SDS011;55785;47.946;20.540;2023-09-19T12:50:33;0.93;;;0.73;;
67585;SDS011;55785;47.946;20.540;2023-09-19T12:52:58;1.45;;;0.80;;
67585;SDS011;55785;47.946;20.540;2023-09-19T12:55:26;0.90;;;0.70;;
67585;SDS011;55785;47.946;20.540;2023-09-19T13:00:39;0.90;;;0.70;;
67585;SDS011;55785;47.946;20.540;2023-09-19T13:13:34;0.65;;;0.57;;
67585;SDS011;55785;47.946;20.540;2023-09-19T13:16:00;1.40;;;0.70;;
67585;SDS011;55785;47.946;20.540;2023-09-19T13:18:26;0.60;;;0.60;;
67585;SDS011;55785;47.946;20.540;2023-09-19T13:21:07;2.25;;;0.63;;
67585;SDS011;55785;47.946;20.540;2023-09-19T13:23:32;0.65;;;0.60;;
67585;SDS011;55785;47.946;20.540;2023-09-19T13:25:57;0.63;;;0.60;;
67585;SDS011;55785;47.946;20.540;2023-09-19T13:28:22;0.40;;;0.40;;
67585;SDS011;55785;47.946;20.540;2023-09-19T13:30:47;0.60;;;0.50;;
67585;SDS011;55785;47.946;20.540;2023-09-19T13:33:12;0.63;;;0.50;;
67585;SDS011;55785;47.946;20.540;2023-09-19T13:35:38;2.87;;;0.60;;
67585;SDS011;55785;47.946;20.540;2023-09-19T13:38:03;0.50;;;0.50;;
67585;SDS011;55785;47.946;20.540;2023-09-19T13:40:29;1.48;;;0.90;;
67585;SDS011;55785;47.946;20.540;2023-09-19T13:42:54;1.00;;;0.70;;
67585;SDS011;55785;47.946;20.540;2023-09-19T13:45:19;1.13;;;0.50;;
67585;SDS011;55785;47.946;20.540;2023-09-19T13:47:44;1.20;;;0.60;;
67585;SDS011;55785;47.946;20.540;2023-09-19T13:50:09;1.27;;;0.60;;
67585;SDS011;55785;47.946;20.540;2023-09-19T13:52:35;0.85;;;0.57;;
67585;SDS011;55785;47.946;20.540;2023-09-19T13:55:00;0.85;;;0.52;;
67585;SDS011;55785;47.946;20.540;2023-09-19T13:57:26;1.30;;;0.80;;
67585;SDS011;55785;47.946;20.540;2023-09-19T13:59:51;0.93;;;0.50;;
67585;SDS011;55785;47.946;20.540;2023-09-19T14:02:17;0.75;;;0.40;;
67585;SDS011;55785;47.946;20.540;2023-09-19T14:04:42;1.05;;;0.70;;
67585;SDS011;55785;47.946;20.540;2023-09-19T14:07:07;3.03;;;0.60;;
67585;SDS011;55785;47.946;20.540;2023-09-19T14:09:33;1.97;;;0.90;;
67585;SDS011;55785;47.946;20.540;2023-09-19T14:11:58;0.50;;;0.50;;
67585;SDS011;55785;47.946;20.540;2023-09-19T14:14:23;3.00;;;0.60;;
67585;SDS011;55785;47.946;20.540;2023-09-19T14:16:48;0.98;;;0.50;;
67585;SDS011;55785;47.946;20.540;2023-09-19T14:19:14;1.90;;;0.57;;
67585;SDS011;55785;47.946;20.540;2023-09-19T14:21:39;0.95;;;0.52;;
67585;SDS011;55785;47.946;20.540;2023-09-19T14:24:04;0.63;;;0.50;;
67585;SDS011;55785;47.946;20.540;2023-09-19T14:26:29;0.50;;;0.50;;
67585;SDS011;55785;47.946;20.540;2023-09-19T14:28:54;0.60;;;0.40;;
67585;SDS011;55785;47.946;20.540;2023-09-19T14:31:19;0.60;;;0.50;;
67585;SDS011;55785;47.946;20.540;2023-09-19T14:33:45;0.55;;;0.40;;
67585;SDS011;55785;47.946;20.540;2023-09-19T14:36:10;1.43;;;0.50;;
67585;SDS011;55785;47.946;20.540;2023-09-19T14:38:35;0.63;;;0.40;;
67585;SDS011;55785;47.946;20.540;2023-09-19T14:41:02;1.38;;;0.50;;
67585;SDS011;55785;47.946;20.540;2023-09-19T14:43:27;0.80;;;0.50;;
67585;SDS011;55785;47.946;20.540;2023-09-19T14:45:52;0.93;;;0.67;;
67585;SDS011;55785;47.946;20.540;2023-09-19T14:48:17;1.25;;;0.50;;
67585;SDS011;55785;47.946;20.540;2023-09-19T14:50:42;0.30;;;0.30;;
67585;SDS011;55785;47.946;20.540;2023-09-19T14:53:08;0.80;;;0.40;;
67585;SDS011;55785;47.946;20.540;2023-09-19T14:55:35;1.75;;;0.60;;
67585;SDS011;55785;47.946;20.540;2023-09-19T14:58:01;2.72;;;0.50;;
67585;SDS011;55785;47.946;20.540;2023-09-19T15:00:26;0.93;;;0.50;;
67585;SDS011;55785;47.946;20.540;2023-09-19T15:02:51;0.50;;;0.50;;
67585;SDS011;55785;47.946;20.540;2023-09-19T15:05:16;0.82;;;0.50;;
67585;SDS011;55785;47.946;20.540;2023-09-19T15:07:41;0.85;;;0.50;;
67585;SDS011;55785;47.946;20.540;2023-09-19T15:10:07;0.82;;;0.50;;
67585;SDS011;55785;47.946;20.540;2023-09-19T15:12:32;1.17;;;0.40;;
67585;SDS011;55785;47.946;20.540;2023-09-19T15:14:58;0.35;;;0.30;;
67585;SDS011;55785;47.946;20.540;2023-09-19T15:17:23;1.80;;;0.50;;
67585;SDS011;55785;47.946;20.540;2023-09-19T15:19:49;0.50;;;0.50;;
67585;SDS011;55785;47.946;20.540;2023-09-19T15:22:14;0.63;;;0.43;;